createdAt,value
2023-09-06T00:01:07.674Z,6.60
2023-09-06T00:03:37.408Z,7.00
2023-09-06T00:06:06.724Z,7.30
2023-09-06T00:08:35.541Z,7.17
2023-09-06T00:11:05.519Z,7.10
2023-09-06T00:13:34.357Z,7.07
2023-09-06T00:16:02.084Z,6.80
2023-09-06T00:18:29.989Z,7.23
2023-09-06T00:20:58.927Z,7.63
2023-09-06T00:23:27.948Z,12.13
2023-09-06T00:25:55.752Z,7.20
2023-09-06T00:28:25.407Z,7.27
2023-09-06T00:30:53.193Z,7.97
2023-09-06T00:33:22.407Z,6.93
2023-09-06T00:35:50.093Z,7.87
2023-09-06T00:38:17.658Z,7.10
2023-09-06T00:40:52.745Z,7.70
2023-09-06T00:43:20.452Z,10.37
2023-09-06T00:45:49.557Z,8.50
2023-09-06T00:48:22.672Z,8.27
2023-09-06T00:50:52.446Z,7.33
2023-09-06T00:53:21.144Z,7.00
2023-09-06T00:55:50.722Z,7.97
2023-09-06T00:58:19.689Z,7.33
2023-09-06T01:00:48.225Z,6.97
2023-09-06T01:03:16.878Z,8.77
2023-09-06T01:06:07.074Z,8.67
2023-09-06T01:08:38.219Z,8.13
2023-09-06T01:11:23.474Z,7.57
2023-09-06T01:13:52.988Z,7.40
2023-09-06T01:16:24.561Z,8.17
2023-09-06T01:18:52.276Z,8.67
2023-09-06T01:21:21.619Z,7.87
2023-09-06T01:23:52.133Z,8.00
2023-09-06T01:26:20.304Z,8.47
2023-09-06T01:28:50.553Z,8.07
2023-09-06T01:31:18.710Z,7.60
2023-09-06T01:33:46.659Z,7.80
2023-09-06T01:36:14.331Z,7.53
2023-09-06T01:38:43.022Z,8.10
2023-09-06T01:41:13.346Z,8.43
2023-09-06T01:43:41.574Z,8.47
2023-09-06T01:46:09.282Z,8.00
2023-09-06T01:48:37.686Z,8.40
2023-09-06T01:51:05.775Z,7.87
2023-09-06T01:53:33.352Z,9.20
2023-09-06T01:56:01.441Z,8.30
2023-09-06T01:58:33.714Z,7.70
2023-09-06T02:01:01.934Z,10.33
2023-09-06T02:03:29.898Z,7.93
2023-09-06T02:05:57.527Z,8.17
2023-09-06T02:08:26.880Z,8.10
2023-09-06T02:10:54.749Z,7.57
2023-09-06T02:13:22.369Z,8.30
2023-09-06T02:15:51.428Z,7.73
2023-09-06T02:18:19.691Z,7.90
2023-09-06T02:20:49.784Z,7.93
2023-09-06T02:23:17.498Z,8.20
2023-09-06T02:25:46.309Z,7.87
2023-09-06T02:28:15.650Z,8.63
2023-09-06T02:30:43.299Z,7.83
2023-09-06T02:33:13.646Z,7.53
2023-09-06T02:35:41.937Z,7.73
2023-09-06T02:38:10.216Z,8.07
2023-09-06T02:40:37.971Z,7.50
2023-09-06T02:43:06.161Z,7.50
2023-09-06T02:45:38.856Z,7.53
2023-09-06T02:48:08.527Z,7.13
2023-09-06T02:50:37.543Z,7.47
2023-09-06T02:53:05.800Z,8.23
2023-09-06T02:55:36.403Z,7.97
2023-09-06T02:58:06.148Z,9.00
2023-09-06T03:00:37.262Z,8.23
2023-09-06T03:03:07.427Z,8.03
2023-09-06T03:05:42.645Z,8.23
2023-09-06T03:08:10.858Z,8.33
2023-09-06T03:10:38.881Z,7.63
2023-09-06T03:13:06.815Z,8.20
2023-09-06T03:15:35.537Z,8.27
2023-09-06T03:18:06.040Z,8.60
2023-09-06T03:20:34.178Z,8.07
2023-09-06T03:23:10.311Z,8.03
2023-09-06T03:25:41.401Z,8.80
2023-09-06T03:28:09.673Z,7.80
2023-09-06T03:30:37.319Z,7.97
2023-09-06T03:33:06.397Z,8.50
2023-09-06T03:35:33.998Z,7.67
2023-09-06T03:38:03.221Z,8.67
2023-09-06T03:40:37.052Z,7.47
2023-09-06T03:43:15.811Z,8.17
2023-09-06T03:45:45.238Z,8.40
2023-09-06T03:48:14.120Z,8.07
2023-09-06T03:50:42.533Z,8.37
2023-09-06T03:53:14.693Z,8.03
2023-09-06T03:55:43.551Z,8.20
2023-09-06T03:58:12.250Z,7.87
2023-09-06T04:00:43.933Z,8.13
2023-09-06T04:03:13.727Z,8.20
2023-09-06T04:05:43.168Z,8.87
2023-09-06T04:08:12.295Z,8.40
2023-09-06T04:10:41.509Z,8.13
2023-09-06T04:13:10.203Z,8.20
2023-09-06T04:15:38.644Z,9.63
2023-09-06T04:18:07.522Z,8.23
2023-09-06T04:20:37.277Z,8.43
2023-09-06T04:23:06.639Z,8.43
2023-09-06T04:25:42.628Z,8.73
2023-09-06T04:28:10.859Z,8.90
2023-09-06T04:30:39.515Z,8.00
2023-09-06T04:33:09.208Z,8.37
2023-09-06T04:35:40.035Z,8.60
2023-09-06T04:38:10.896Z,8.93
2023-09-06T04:40:40.014Z,9.50
2023-09-06T04:43:08.695Z,8.83
2023-09-06T04:45:38.731Z,9.03
2023-09-06T04:48:07.128Z,8.50
2023-09-06T04:50:34.959Z,8.73
2023-09-06T04:53:02.588Z,8.70
2023-09-06T04:55:34.944Z,7.93
2023-09-06T04:58:04.499Z,8.93
2023-09-06T05:00:34.392Z,8.70
2023-09-06T05:03:02.664Z,9.07
2023-09-06T05:05:31.382Z,8.60
2023-09-06T05:07:59.202Z,9.00
2023-09-06T05:10:26.746Z,9.03
2023-09-06T05:12:54.318Z,9.37
2023-09-06T05:15:23.306Z,9.83
2023-09-06T05:17:50.923Z,8.97
2023-09-06T05:20:25.657Z,8.23
2023-09-06T05:22:53.364Z,8.67
2023-09-06T05:25:20.964Z,9.03
2023-09-06T05:27:48.609Z,9.57
2023-09-06T05:30:16.485Z,9.00
2023-09-06T05:32:45.426Z,8.67
2023-09-06T05:35:13.223Z,9.47
2023-09-06T05:37:41.169Z,8.63
2023-09-06T05:40:09.866Z,7.90
2023-09-06T05:42:38.230Z,9.23
2023-09-06T05:45:06.918Z,8.60
2023-09-06T05:47:37.208Z,8.70
2023-09-06T05:50:07.764Z,8.50
2023-09-06T05:52:35.597Z,8.03
2023-09-06T05:55:03.347Z,8.20
2023-09-06T05:57:32.172Z,8.87
2023-09-06T05:59:59.873Z,7.53
2023-09-06T06:02:27.669Z,8.77
2023-09-06T06:04:56.353Z,7.93
2023-09-06T06:07:24.491Z,7.70
2023-09-06T06:09:52.073Z,7.67
2023-09-06T06:12:23.740Z,7.73
2023-09-06T06:14:52.923Z,6.80
2023-09-06T06:17:20.707Z,7.17
2023-09-06T06:19:50.196Z,7.60
2023-09-06T06:22:17.871Z,6.77
2023-09-06T06:24:48.735Z,8.27
2023-09-06T06:27:16.509Z,7.37
2023-09-06T06:29:44.151Z,6.90
2023-09-06T06:32:11.898Z,7.80
2023-09-06T06:34:40.487Z,8.00
2023-09-06T06:37:08.388Z,7.13
2023-09-06T06:39:36.085Z,7.07
2023-09-06T06:42:05.325Z,6.60
2023-09-06T06:44:32.865Z,6.90
2023-09-06T06:47:02.452Z,7.17
2023-09-06T06:49:30.036Z,6.87
2023-09-06T06:51:57.640Z,6.50
2023-09-06T06:54:26.124Z,6.53
2023-09-06T06:56:53.757Z,6.23
2023-09-06T06:59:22.704Z,7.03
2023-09-06T07:01:50.416Z,5.90
2023-09-06T07:04:18.072Z,5.53
2023-09-06T07:06:45.736Z,5.53
2023-09-06T07:09:13.304Z,5.57
2023-09-06T07:11:40.937Z,7.33
2023-09-06T07:14:08.566Z,5.40
2023-09-06T07:16:37.698Z,5.07
2023-09-06T07:19:06.340Z,5.00
2023-09-06T07:21:33.970Z,5.07
2023-09-06T07:24:01.559Z,4.90
2023-09-06T07:26:29.172Z,5.30
2023-09-06T07:28:56.800Z,5.57
2023-09-06T07:31:24.470Z,4.67
2023-09-06T07:33:53.589Z,5.63
2023-09-06T07:36:21.378Z,4.90
2023-09-06T07:38:49.566Z,4.20
2023-09-06T07:41:18.426Z,4.83
2023-09-06T07:43:46.103Z,4.67
2023-09-06T07:46:13.808Z,4.30
2023-09-06T07:48:41.479Z,3.77
2023-09-06T07:51:13.280Z,4.17
2023-09-06T07:53:42.930Z,5.10
2023-09-06T07:56:10.694Z,5.50
2023-09-06T07:58:38.745Z,4.60
2023-09-06T08:01:18.060Z,4.30
2023-09-06T08:03:47.453Z,3.87
2023-09-06T08:06:17.547Z,4.90
2023-09-06T08:08:46.028Z,6.03
2023-09-06T08:11:13.899Z,3.87
2023-09-06T08:13:42.730Z,4.80
2023-09-06T08:16:13.361Z,5.63
2023-09-06T08:18:41.928Z,4.90
2023-09-06T08:21:09.839Z,5.40
2023-09-06T08:23:38.826Z,3.93
2023-09-06T08:26:06.370Z,4.67
2023-09-06T08:28:34.747Z,5.97
2023-09-06T08:31:03.171Z,4.23
2023-09-06T08:33:31.265Z,5.13
2023-09-06T08:35:59.652Z,4.33
2023-09-06T08:38:27.729Z,4.20
2023-09-06T08:40:56.660Z,5.07
2023-09-06T08:43:25.742Z,4.03
2023-09-06T08:45:53.425Z,4.17
2023-09-06T08:48:21.723Z,4.40
2023-09-06T08:50:49.943Z,4.73
2023-09-06T08:53:19.414Z,4.43
2023-09-06T08:55:47.636Z,4.63
2023-09-06T08:58:17.019Z,4.50
2023-09-06T09:00:44.798Z,4.93
2023-09-06T09:03:13.790Z,4.53
2023-09-06T09:05:41.520Z,5.60
2023-09-06T09:08:10.990Z,4.37
2023-09-06T09:10:38.739Z,4.40
2023-09-06T09:13:06.363Z,5.37
2023-09-06T09:15:35.803Z,4.20
2023-09-06T09:18:11.866Z,19.07
2023-09-06T09:20:41.339Z,4.70
2023-09-06T09:23:13.275Z,5.13
2023-09-06T09:25:48.047Z,4.70
2023-09-06T09:28:16.235Z,4.60
2023-09-06T09:30:47.318Z,5.70
2023-09-06T09:33:16.051Z,5.13
2023-09-06T09:35:45.479Z,5.17
2023-09-06T09:38:13.059Z,13.50
2023-09-06T09:43:11.663Z,4.80
2023-09-06T09:45:44.448Z,4.70
2023-09-06T09:48:13.696Z,4.27
2023-09-06T09:50:42.683Z,4.67
2023-09-06T09:55:48.130Z,4.77
2023-09-06T09:58:15.822Z,4.60
2023-09-06T10:00:43.663Z,4.83
2023-09-06T10:03:14.581Z,4.97
2023-09-06T10:05:43.695Z,4.80
2023-09-06T10:08:12.198Z,4.60
2023-09-06T10:10:41.331Z,4.40
2023-09-06T10:13:09.959Z,4.53
2023-09-06T10:15:38.677Z,4.20
2023-09-06T10:18:08.570Z,4.10
2023-09-06T10:20:38.474Z,4.57
2023-09-06T10:23:09.012Z,4.83
2023-09-06T10:25:40.872Z,4.30
2023-09-06T10:28:09.584Z,5.50
2023-09-06T10:30:45.049Z,3.93
2023-09-06T10:33:13.406Z,4.60
2023-09-06T10:35:44.642Z,5.67
2023-09-06T10:38:15.934Z,4.80
2023-09-06T10:41:07.965Z,4.80
2023-09-06T10:43:57.132Z,4.83
2023-09-06T10:46:29.895Z,5.37
2023-09-06T10:49:20.601Z,5.90
2023-09-06T10:52:09.659Z,4.77
2023-09-06T10:54:41.463Z,5.50
2023-09-06T10:57:11.587Z,5.37
2023-09-06T10:59:40.390Z,5.37
2023-09-06T11:02:12.941Z,4.73
2023-09-06T11:04:41.073Z,5.23
2023-09-06T11:07:12.089Z,5.07
2023-09-06T11:09:44.406Z,5.47
2023-09-06T11:12:13.869Z,5.77
2023-09-06T11:14:41.696Z,4.80
2023-09-06T11:17:09.595Z,4.27
2023-09-06T11:19:37.753Z,4.67
2023-09-06T11:22:07.352Z,4.53
2023-09-06T11:24:37.000Z,3.83
2023-09-06T11:27:18.623Z,4.57
2023-09-06T11:29:46.211Z,4.57
2023-09-06T11:32:14.862Z,5.20
2023-09-06T11:34:46.067Z,4.60
2023-09-06T11:37:16.658Z,4.30
2023-09-06T11:39:46.543Z,5.87
2023-09-06T11:42:16.852Z,4.53
2023-09-06T11:44:49.056Z,5.00
2023-09-06T11:47:18.039Z,4.80
2023-09-06T11:49:46.999Z,5.27
2023-09-06T11:52:17.263Z,4.43
2023-09-06T11:54:48.578Z,3.33
2023-09-06T11:57:24.999Z,4.27
2023-09-06T11:59:58.592Z,3.70
2023-09-06T12:02:28.369Z,3.77
2023-09-06T12:05:01.845Z,4.53
2023-09-06T12:07:29.609Z,4.83
2023-09-06T12:10:00.697Z,3.63
2023-09-06T12:12:28.335Z,3.67
2023-09-06T12:14:56.015Z,4.13
2023-09-06T12:17:26.420Z,6.60
2023-09-06T12:20:00.312Z,3.73
2023-09-06T12:22:27.962Z,4.03
2023-09-06T12:24:56.351Z,3.30
2023-09-06T12:27:26.443Z,2.43
2023-09-06T12:29:54.756Z,3.10
2023-09-06T12:32:24.492Z,2.33
2023-09-06T12:34:53.546Z,2.63
2023-09-06T12:37:22.027Z,2.40
2023-09-06T12:39:49.742Z,2.57
2023-09-06T12:42:17.527Z,2.97
2023-09-06T12:44:46.423Z,3.00
2023-09-06T12:47:17.596Z,2.80
2023-09-06T12:49:45.217Z,3.40
2023-09-06T12:52:14.947Z,2.40
2023-09-06T12:54:42.490Z,2.67
2023-09-06T12:57:10.121Z,3.08
2023-09-06T12:59:37.723Z,2.90
2023-09-06T13:02:07.324Z,2.72
2023-09-06T13:04:35.076Z,2.40
2023-09-06T13:07:02.976Z,3.22
2023-09-06T13:09:30.582Z,2.65
2023-09-06T13:11:58.877Z,3.05
2023-09-06T13:14:26.520Z,2.80
2023-09-06T13:16:54.330Z,2.78
2023-09-06T13:19:23.501Z,2.95
2023-09-06T13:21:51.225Z,3.10
2023-09-06T13:24:18.949Z,2.97
2023-09-06T13:26:48.190Z,2.47
2023-09-06T13:29:15.963Z,2.92
2023-09-06T13:31:43.633Z,2.60
2023-09-06T13:34:11.403Z,2.60
2023-09-06T13:36:40.295Z,4.13
2023-09-06T13:39:08.627Z,2.90
2023-09-06T13:41:36.914Z,2.97
2023-09-06T13:44:05.162Z,2.63
2023-09-06T13:46:34.049Z,2.55
2023-09-06T13:49:01.956Z,3.30
2023-09-06T13:51:29.858Z,3.00
2023-09-06T13:53:58.940Z,2.95
2023-09-06T13:56:26.511Z,3.03
2023-09-06T13:58:54.060Z,2.90
2023-09-06T14:01:21.701Z,2.70
2023-09-06T14:03:49.518Z,5.22
2023-09-06T14:06:17.105Z,2.70
2023-09-06T14:08:44.759Z,2.72
2023-09-06T14:11:14.075Z,2.85
2023-09-06T14:13:41.734Z,2.80
2023-09-06T14:16:10.259Z,2.97
2023-09-06T14:18:37.934Z,2.83
2023-09-06T14:21:05.498Z,2.63
2023-09-06T14:23:33.114Z,3.42
2023-09-06T14:26:00.830Z,3.00
2023-09-06T14:28:30.088Z,3.40
2023-09-06T14:30:58.551Z,2.65
2023-09-06T14:33:26.237Z,3.10
2023-09-06T14:35:54.104Z,2.10
2023-09-06T14:38:22.869Z,2.60
2023-09-06T14:40:50.775Z,2.88
2023-09-06T14:43:20.054Z,2.70
2023-09-06T14:45:49.054Z,2.50
2023-09-06T14:48:16.803Z,2.20
2023-09-06T14:50:44.482Z,2.97
2023-09-06T14:53:12.318Z,2.42
2023-09-06T14:55:39.931Z,3.72
2023-09-06T14:58:07.496Z,2.35
2023-09-06T15:00:35.189Z,2.65
2023-09-06T15:03:04.799Z,2.05
2023-09-06T15:05:32.923Z,2.85
2023-09-06T15:08:01.706Z,2.25
2023-09-06T15:10:33.109Z,2.40
2023-09-06T15:13:01.229Z,2.25
2023-09-06T15:15:28.838Z,2.73
2023-09-06T15:17:59.421Z,5.47
2023-09-06T15:20:30.191Z,2.30
2023-09-06T15:22:57.972Z,3.00
2023-09-06T15:25:26.863Z,2.50
2023-09-06T15:27:54.870Z,2.50
2023-09-06T15:30:23.534Z,3.43
2023-09-06T15:32:51.303Z,3.03
2023-09-06T15:35:18.915Z,2.80
2023-09-06T15:38:01.353Z,3.20
2023-09-06T15:40:28.973Z,2.10
2023-09-06T15:42:56.541Z,3.23
2023-09-06T15:45:24.176Z,2.63
2023-09-06T15:47:51.902Z,2.17
2023-09-06T15:50:21.029Z,2.33
2023-09-06T15:52:49.583Z,2.40
2023-09-06T15:55:18.540Z,2.87
2023-09-06T15:57:46.998Z,2.37
2023-09-06T16:00:30.931Z,2.60
2023-09-06T16:03:00.546Z,2.50
2023-09-06T16:05:28.564Z,2.57
2023-09-06T16:07:56.870Z,2.83
2023-09-06T16:10:26.183Z,2.97
2023-09-06T16:12:53.862Z,2.50
2023-09-06T16:15:23.693Z,3.20
2023-09-06T16:17:51.623Z,3.07
2023-09-06T16:20:19.559Z,2.67
2023-09-06T16:22:48.147Z,2.93
2023-09-06T16:25:15.732Z,2.30
2023-09-06T16:27:46.830Z,2.40
2023-09-06T16:30:14.947Z,2.93
2023-09-06T16:32:42.961Z,2.53
2023-09-06T16:35:10.724Z,2.27
2023-09-06T16:37:40.596Z,3.70
2023-09-06T16:40:11.986Z,3.70
2023-09-06T16:42:40.911Z,2.77
2023-09-06T16:45:11.090Z,2.60
2023-09-06T16:47:38.663Z,3.20
2023-09-06T16:50:07.557Z,2.93
2023-09-06T16:52:36.867Z,3.03
2023-09-06T16:55:04.894Z,9.13
2023-09-06T16:57:32.509Z,2.70
2023-09-06T17:00:00.060Z,3.10
2023-09-06T17:02:29.099Z,5.70
2023-09-06T17:04:56.713Z,3.40
2023-09-06T17:07:24.277Z,3.00
2023-09-06T17:09:51.929Z,3.20
2023-09-06T17:12:21.272Z,3.43
2023-09-06T17:14:48.907Z,3.33
2023-09-06T17:17:17.945Z,3.23
2023-09-06T17:19:46.902Z,4.13
2023-09-06T17:22:14.500Z,3.30
2023-09-06T17:24:42.560Z,4.40
2023-09-06T17:27:10.147Z,3.30
2023-09-06T17:29:41.029Z,3.50
2023-09-06T17:32:08.813Z,5.70
2023-09-06T17:34:36.502Z,3.77
2023-09-06T17:37:07.126Z,3.20
2023-09-06T17:39:34.801Z,3.73
2023-09-06T17:42:02.911Z,3.87
2023-09-06T17:44:32.650Z,4.73
2023-09-06T17:47:02.753Z,3.40
2023-09-06T17:49:30.771Z,3.90
2023-09-06T17:51:59.516Z,3.43
2023-09-06T17:54:30.131Z,3.40
2023-09-06T17:57:00.518Z,3.53
2023-09-06T17:59:29.057Z,3.40
2023-09-06T18:01:57.453Z,4.03
2023-09-06T18:04:25.832Z,3.70
2023-09-06T18:06:54.812Z,3.60
2023-09-06T18:09:24.234Z,4.27
2023-09-06T18:11:54.050Z,5.07
2023-09-06T18:14:22.141Z,7.83
2023-09-06T18:16:49.805Z,4.30
2023-09-06T18:19:17.790Z,3.93
2023-09-06T18:21:45.391Z,4.17
2023-09-06T18:24:15.509Z,4.53
2023-09-06T18:26:54.213Z,3.97
2023-09-06T18:29:33.139Z,3.53
2023-09-06T18:32:00.854Z,4.20
2023-09-06T18:34:28.521Z,3.60
2023-09-06T18:36:56.265Z,4.77
2023-09-06T18:39:23.861Z,3.53
2023-09-06T18:41:52.313Z,3.60
2023-09-06T18:44:19.873Z,3.70
2023-09-06T18:46:48.801Z,3.50
2023-09-06T18:49:15.457Z,3.70
2023-09-06T18:51:42.982Z,3.60
2023-09-06T18:54:10.550Z,4.70
2023-09-06T18:56:38.375Z,4.80
2023-09-06T18:59:06.392Z,3.70
2023-09-06T19:01:34.104Z,5.37
2023-09-06T19:04:03.068Z,3.93
2023-09-06T19:06:35.355Z,4.20
2023-09-06T19:09:09.180Z,4.60
2023-09-06T19:11:37.604Z,4.17
2023-09-06T19:14:05.623Z,3.80
2023-09-06T19:16:34.016Z,4.07
2023-09-06T19:19:03.029Z,4.17
2023-09-06T19:21:30.703Z,3.73
2023-09-06T19:23:58.320Z,3.80
2023-09-06T19:26:26.010Z,4.10
2023-09-06T19:28:53.645Z,4.10
2023-09-06T19:31:21.400Z,3.90
2023-09-06T19:33:49.021Z,3.83
2023-09-06T19:36:18.499Z,5.10
2023-09-06T19:38:46.067Z,4.10
2023-09-06T19:41:13.657Z,4.23
2023-09-06T19:43:42.063Z,4.20
2023-09-06T19:46:09.692Z,4.57
2023-09-06T19:48:47.107Z,4.37
2023-09-06T19:51:23.899Z,4.90
2023-09-06T19:53:51.445Z,5.17
2023-09-06T19:56:19.014Z,4.00
2023-09-06T19:58:48.670Z,4.00
2023-09-06T20:01:17.602Z,4.53
2023-09-06T20:03:45.558Z,4.83
2023-09-06T20:06:13.307Z,4.80
2023-09-06T20:08:43.719Z,4.40
2023-09-06T20:11:11.513Z,4.43
2023-09-06T20:13:39.131Z,4.50
2023-09-06T20:16:06.947Z,4.30
2023-09-06T20:18:35.489Z,3.97
2023-09-06T20:21:06.813Z,4.10
2023-09-06T20:23:36.116Z,4.50
2023-09-06T20:26:05.332Z,4.33
2023-09-06T20:28:33.480Z,4.50
2023-09-06T20:31:01.191Z,4.30
2023-09-06T20:33:29.067Z,7.20
2023-09-06T20:35:59.450Z,4.70
2023-09-06T20:38:27.119Z,4.77
2023-09-06T20:41:01.732Z,4.47
2023-09-06T20:43:31.421Z,3.97
2023-09-06T20:45:59.440Z,4.70
2023-09-06T20:48:29.139Z,4.40
2023-09-06T20:51:01.710Z,4.43
2023-09-06T20:53:31.705Z,5.13
2023-09-06T20:56:00.426Z,5.00
2023-09-06T20:58:28.387Z,4.60
2023-09-06T21:00:57.845Z,4.60
2023-09-06T21:03:26.831Z,4.10
2023-09-06T21:05:57.500Z,4.87
2023-09-06T21:08:25.381Z,4.77
2023-09-06T21:10:53.026Z,4.93
2023-09-06T21:13:20.599Z,4.90
2023-09-06T21:15:48.441Z,4.97
2023-09-06T21:18:17.524Z,4.93
2023-09-06T21:20:45.638Z,5.43
2023-09-06T21:23:14.115Z,4.70
2023-09-06T21:25:42.332Z,4.37
2023-09-06T21:28:10.155Z,4.40
2023-09-06T21:30:41.383Z,4.77
2023-09-06T21:33:09.700Z,4.60
2023-09-06T21:35:43.741Z,4.83
2023-09-06T21:38:11.522Z,5.00
2023-09-06T21:40:40.815Z,4.93
2023-09-06T21:43:17.728Z,4.43
2023-09-06T21:45:46.512Z,4.53
2023-09-06T21:48:14.460Z,5.10
2023-09-06T21:50:47.457Z,4.67
2023-09-06T21:53:16.177Z,4.90
2023-09-06T21:55:43.869Z,6.27
2023-09-06T21:58:11.875Z,5.07
2023-09-06T22:00:40.061Z,5.30
2023-09-06T22:03:08.071Z,5.43
2023-09-06T22:05:35.736Z,6.00
2023-09-06T22:08:05.235Z,4.87
2023-09-06T22:10:32.822Z,4.90
2023-09-06T22:13:00.596Z,5.40
2023-09-06T22:15:28.421Z,5.20
2023-09-06T22:17:56.061Z,5.03
2023-09-06T22:20:24.379Z,5.47
2023-09-06T22:22:52.017Z,5.37
2023-09-06T22:25:20.997Z,5.30
2023-09-06T22:27:51.167Z,5.83
2023-09-06T22:30:18.996Z,4.97
2023-09-06T22:32:46.643Z,5.20
2023-09-06T22:35:14.251Z,5.60
2023-09-06T22:37:43.480Z,5.53
2023-09-06T22:40:12.134Z,5.53
2023-09-06T22:42:41.212Z,5.73
2023-09-06T22:45:10.429Z,5.87
2023-09-06T22:47:38.057Z,6.07
2023-09-06T22:50:06.553Z,5.37
2023-09-06T22:52:34.241Z,5.70
2023-09-06T22:55:02.909Z,6.50
2023-09-06T22:57:30.553Z,6.47
2023-09-06T22:59:59.454Z,6.23
2023-09-06T23:02:27.093Z,6.70
2023-09-06T23:04:55.952Z,6.17
2023-09-06T23:07:23.844Z,6.10
2023-09-06T23:09:51.644Z,5.73
2023-09-06T23:12:19.901Z,6.10
2023-09-06T23:14:48.428Z,7.10
2023-09-06T23:17:22.908Z,5.87
2023-09-06T23:19:54.144Z,6.30
2023-09-06T23:22:24.222Z,7.37
2023-09-06T23:24:57.320Z,6.30
2023-09-06T23:27:26.974Z,6.10
2023-09-06T23:29:58.997Z,6.30
2023-09-06T23:32:31.963Z,6.60
2023-09-06T23:34:59.750Z,6.90
2023-09-06T23:37:29.335Z,6.97
2023-09-06T23:40:01.690Z,6.30
2023-09-06T23:42:29.696Z,6.73
2023-09-06T23:44:57.935Z,7.23
2023-09-06T23:47:27.164Z,7.07
2023-09-06T23:49:56.102Z,6.37
2023-09-06T23:52:24.014Z,6.70
2023-09-06T23:54:51.794Z,6.60
2023-09-06T23:57:19.463Z,8.10
2023-09-06T23:59:48.078Z,6.70
